sensor_id;sensor_type;location;lat;lon;timestamp;temperature;humidity
15288;DHT22;7745;48.708;9.026;2023-07-16T00:00:58;19.70;99.90
15288;DHT22;7745;48.708;9.026;2023-07-16T00:03:25;19.70;99.90
15288;DHT22;7745;48.708;9.026;2023-07-16T00:05:52;19.70;99.90
15288;DHT22;7745;48.708;9.026;2023-07-16T00:08:19;19.70;99.90
15288;DHT22;7745;48.708;9.026;2023-07-16T00:10:47;19.70;99.90
15288;DHT22;7745;48.708;9.026;2023-07-16T00:13:14;19.70;99.90
15288;DHT22;7745;48.708;9.026;2023-07-16T00:15:40;19.70;99.90
15288;DHT22;7745;48.708;9.026;2023-07-16T00:18:07;19.70;99.90
15288;DHT22;7745;48.708;9.026;2023-07-16T00:20:34;19.80;99.90
15288;DHT22;7745;48.708;9.026;2023-07-16T00:23:00;20.00;99.90
15288;DHT22;7745;48.708;9.026;2023-07-16T00:25:27;19.90;99.90
15288;DHT22;7745;48.708;9.026;2023-07-16T00:27:57;19.90;99.90
15288;DHT22;7745;48.708;9.026;2023-07-16T00:30:24;19.90;99.90
15288;DHT22;7745;48.708;9.026;2023-07-16T00:32:50;19.90;99.90
15288;DHT22;7745;48.708;9.026;2023-07-16T00:35:17;19.80;99.90
15288;DHT22;7745;48.708;9.026;2023-07-16T00:37:44;20.00;99.90
15288;DHT22;7745;48.708;9.026;2023-07-16T00:40:11;19.90;99.90
15288;DHT22;7745;48.708;9.026;2023-07-16T00:42:38;19.90;99.90
15288;DHT22;7745;48.708;9.026;2023-07-16T00:45:11;20.10;99.90
15288;DHT22;7745;48.708;9.026;2023-07-16T00:47:39;20.00;99.90
15288;DHT22;7745;48.708;9.026;2023-07-16T00:50:07;20.00;99.90
15288;DHT22;7745;48.708;9.026;2023-07-16T00:52:34;20.00;99.90
15288;DHT22;7745;48.708;9.026;2023-07-16T00:55:01;20.10;99.90
15288;DHT22;7745;48.708;9.026;2023-07-16T00:57:29;19.90;99.90
15288;DHT22;7745;48.708;9.026;2023-07-16T00:59:56;19.90;99.90
15288;DHT22;7745;48.708;9.026;2023-07-16T01:02:24;19.90;99.90
15288;DHT22;7745;48.708;9.026;2023-07-16T01:04:51;19.90;99.90
15288;DHT22;7745;48.708;9.026;2023-07-16T01:07:19;19.70;99.90
15288;DHT22;7745;48.708;9.026;2023-07-16T01:09:48;19.90;99.90
15288;DHT22;7745;48.708;9.026;2023-07-16T01:12:15;19.80;99.90
15288;DHT22;7745;48.708;9.026;2023-07-16T01:14:42;19.80;99.90
15288;DHT22;7745;48.708;9.026;2023-07-16T01:17:09;19.80;99.90
15288;DHT22;7745;48.708;9.026;2023-07-16T01:19:38;19.70;99.90
15288;DHT22;7745;48.708;9.026;2023-07-16T01:22:27;19.80;99.90
15288;DHT22;7745;48.708;9.026;2023-07-16T01:25:09;19.70;99.90
15288;DHT22;7745;48.708;9.026;2023-07-16T01:28:05;19.60;99.90
15288;DHT22;7745;48.708;9.026;2023-07-16T01:30:34;19.60;99.90
15288;DHT22;7745;48.708;9.026;2023-07-16T01:33:04;19.50;99.90
15288;DHT22;7745;48.708;9.026;2023-07-16T01:35:32;19.50;99.90
15288;DHT22;7745;48.708;9.026;2023-07-16T01:38:00;19.50;99.90
15288;DHT22;7745;48.708;9.026;2023-07-16T01:40:26;19.50;99.90
15288;DHT22;7745;48.708;9.026;2023-07-16T01:42:53;19.50;99.90
15288;DHT22;7745;48.708;9.026;2023-07-16T01:45:20;19.40;99.90
15288;DHT22;7745;48.708;9.026;2023-07-16T01:47:59;19.30;99.90
15288;DHT22;7745;48.708;9.026;2023-07-16T01:50:27;19.20;99.90
15288;DHT22;7745;48.708;9.026;2023-07-16T01:52:54;19.20;99.90
15288;DHT22;7745;48.708;9.026;2023-07-16T01:55:21;19.10;99.90
15288;DHT22;7745;48.708;9.026;2023-07-16T01:57:47;19.20;99.90
15288;DHT22;7745;48.708;9.026;2023-07-16T02:00:14;19.20;99.90
15288;DHT22;7745;48.708;9.026;2023-07-16T02:02:41;19.20;99.90
15288;DHT22;7745;48.708;9.026;2023-07-16T02:05:09;19.30;99.90
15288;DHT22;7745;48.708;9.026;2023-07-16T02:07:36;19.20;99.90
15288;DHT22;7745;48.708;9.026;2023-07-16T02:10:03;19.20;99.90
15288;DHT22;7745;48.708;9.026;2023-07-16T02:12:30;19.10;99.90
15288;DHT22;7745;48.708;9.026;2023-07-16T02:14:57;19.20;99.90
15288;DHT22;7745;48.708;9.026;2023-07-16T02:17:24;19.00;99.90
15288;DHT22;7745;48.708;9.026;2023-07-16T02:19:50;18.90;99.90
15288;DHT22;7745;48.708;9.026;2023-07-16T02:22:19;19.00;99.90
15288;DHT22;7745;48.708;9.026;2023-07-16T02:24:45;18.90;99.90
15288;DHT22;7745;48.708;9.026;2023-07-16T02:27:12;18.80;99.90
15288;DHT22;7745;48.708;9.026;2023-07-16T02:29:39;18.80;99.90
15288;DHT22;7745;48.708;9.026;2023-07-16T02:32:06;18.80;99.90
15288;DHT22;7745;48.708;9.026;2023-07-16T02:34:33;18.80;99.90
15288;DHT22;7745;48.708;9.026;2023-07-16T02:37:00;18.90;99.90
15288;DHT22;7745;48.708;9.026;2023-07-16T02:39:27;18.70;99.90
15288;DHT22;7745;48.708;9.026;2023-07-16T02:41:54;18.70;99.90
15288;DHT22;7745;48.708;9.026;2023-07-16T02:44:21;18.70;99.90
15288;DHT22;7745;48.708;9.026;2023-07-16T02:46:47;18.70;99.90
15288;DHT22;7745;48.708;9.026;2023-07-16T02:49:14;18.70;99.90
15288;DHT22;7745;48.708;9.026;2023-07-16T02:51:41;18.50;99.90
15288;DHT22;7745;48.708;9.026;2023-07-16T02:54:08;18.70;99.90
15288;DHT22;7745;48.708;9.026;2023-07-16T02:56:36;18.60;99.90
15288;DHT22;7745;48.708;9.026;2023-07-16T02:59:03;18.70;99.90
15288;DHT22;7745;48.708;9.026;2023-07-16T03:01:29;18.60;99.90
15288;DHT22;7745;48.708;9.026;2023-07-16T03:03:56;18.70;99.90
15288;DHT22;7745;48.708;9.026;2023-07-16T03:06:23;18.50;99.90
15288;DHT22;7745;48.708;9.026;2023-07-16T03:08:50;18.60;99.90
15288;DHT22;7745;48.708;9.026;2023-07-16T03:11:17;18.60;99.90
15288;DHT22;7745;48.708;9.026;2023-07-16T03:13:45;18.60;99.90
15288;DHT22;7745;48.708;9.026;2023-07-16T03:16:11;18.60;99.90
15288;DHT22;7745;48.708;9.026;2023-07-16T03:18:38;18.50;99.90
15288;DHT22;7745;48.708;9.026;2023-07-16T03:21:05;18.50;99.90
15288;DHT22;7745;48.708;9.026;2023-07-16T03:23:32;18.50;99.90
15288;DHT22;7745;48.708;9.026;2023-07-16T03:25:58;18.40;99.90
15288;DHT22;7745;48.708;9.026;2023-07-16T03:28:25;18.40;99.90
15288;DHT22;7745;48.708;9.026;2023-07-16T03:30:53;18.50;99.90
15288;DHT22;7745;48.708;9.026;2023-07-16T03:33:20;18.50;99.90
15288;DHT22;7745;48.708;9.026;2023-07-16T03:35:49;18.50;99.90
15288;DHT22;7745;48.708;9.026;2023-07-16T03:38:16;18.50;99.90
15288;DHT22;7745;48.708;9.026;2023-07-16T03:40:47;18.40;99.90
15288;DHT22;7745;48.708;9.026;2023-07-16T03:43:14;18.40;99.90
15288;DHT22;7745;48.708;9.026;2023-07-16T03:45:41;18.40;99.90
15288;DHT22;7745;48.708;9.026;2023-07-16T03:48:09;18.40;99.90
15288;DHT22;7745;48.708;9.026;2023-07-16T03:50:36;18.50;99.90
15288;DHT22;7745;48.708;9.026;2023-07-16T03:53:03;18.60;99.90
15288;DHT22;7745;48.708;9.026;2023-07-16T03:55:30;18.50;99.90
15288;DHT22;7745;48.708;9.026;2023-07-16T03:57:57;18.50;99.90
15288;DHT22;7745;48.708;9.026;2023-07-16T04:00:23;18.50;99.90
15288;DHT22;7745;48.708;9.026;2023-07-16T04:02:50;18.40;99.90
15288;DHT22;7745;48.708;9.026;2023-07-16T04:05:19;18.40;99.90
15288;DHT22;7745;48.708;9.026;2023-07-16T04:07:45;18.30;99.90
15288;DHT22;7745;48.708;9.026;2023-07-16T04:10:12;18.40;99.90
15288;DHT22;7745;48.708;9.026;2023-07-16T04:12:39;18.40;99.90
15288;DHT22;7745;48.708;9.026;2023-07-16T04:15:08;18.50;99.90
15288;DHT22;7745;48.708;9.026;2023-07-16T04:17:35;18.40;99.90
15288;DHT22;7745;48.708;9.026;2023-07-16T04:20:03;18.40;99.90
15288;DHT22;7745;48.708;9.026;2023-07-16T04:22:32;18.40;99.90
15288;DHT22;7745;48.708;9.026;2023-07-16T04:24:59;18.40;99.90
15288;DHT22;7745;48.708;9.026;2023-07-16T04:27:25;18.50;99.90
15288;DHT22;7745;48.708;9.026;2023-07-16T04:29:52;18.50;99.90
15288;DHT22;7745;48.708;9.026;2023-07-16T04:32:19;18.40;99.90
15288;DHT22;7745;48.708;9.026;2023-07-16T04:34:46;18.50;99.90
15288;DHT22;7745;48.708;9.026;2023-07-16T04:37:12;18.50;99.90
15288;DHT22;7745;48.708;9.026;2023-07-16T04:39:41;18.60;99.90
15288;DHT22;7745;48.708;9.026;2023-07-16T04:42:07;18.60;99.90
15288;DHT22;7745;48.708;9.026;2023-07-16T04:44:34;18.60;99.90
15288;DHT22;7745;48.708;9.026;2023-07-16T04:47:01;18.60;99.90
15288;DHT22;7745;48.708;9.026;2023-07-16T04:49:27;18.60;99.90
15288;DHT22;7745;48.708;9.026;2023-07-16T04:51:54;18.70;99.90
15288;DHT22;7745;48.708;9.026;2023-07-16T04:54:21;18.70;99.90
15288;DHT22;7745;48.708;9.026;2023-07-16T04:56:49;18.70;99.90
15288;DHT22;7745;48.708;9.026;2023-07-16T04:59:16;18.60;99.90
15288;DHT22;7745;48.708;9.026;2023-07-16T05:01:42;18.60;99.90
15288;DHT22;7745;48.708;9.026;2023-07-16T05:04:09;18.50;99.90
15288;DHT22;7745;48.708;9.026;2023-07-16T05:06:36;18.50;99.90
15288;DHT22;7745;48.708;9.026;2023-07-16T05:09:03;18.50;99.90
15288;DHT22;7745;48.708;9.026;2023-07-16T05:11:29;18.50;99.90
15288;DHT22;7745;48.708;9.026;2023-07-16T05:14:00;18.50;99.90
15288;DHT22;7745;48.708;9.026;2023-07-16T05:16:26;18.50;99.90
15288;DHT22;7745;48.708;9.026;2023-07-16T05:18:53;18.60;99.90
15288;DHT22;7745;48.708;9.026;2023-07-16T05:21:20;18.60;99.90
15288;DHT22;7745;48.708;9.026;2023-07-16T05:23:47;18.70;99.90
15288;DHT22;7745;48.708;9.026;2023-07-16T05:26:13;18.70;99.90
15288;DHT22;7745;48.708;9.026;2023-07-16T05:28:40;18.70;99.90
15288;DHT22;7745;48.708;9.026;2023-07-16T05:31:08;18.90;99.90
15288;DHT22;7745;48.708;9.026;2023-07-16T05:33:35;18.90;99.90
15288;DHT22;7745;48.708;9.026;2023-07-16T05:36:02;18.90;99.90
15288;DHT22;7745;48.708;9.026;2023-07-16T05:38:29;19.00;99.90
15288;DHT22;7745;48.708;9.026;2023-07-16T05:41:01;19.00;99.90
15288;DHT22;7745;48.708;9.026;2023-07-16T05:43:28;19.10;99.90
15288;DHT22;7745;48.708;9.026;2023-07-16T05:45:55;19.10;99.90
15288;DHT22;7745;48.708;9.026;2023-07-16T05:48:23;19.10;99.90
15288;DHT22;7745;48.708;9.026;2023-07-16T05:50:50;19.20;99.90
15288;DHT22;7745;48.708;9.026;2023-07-16T05:53:17;19.10;99.90
15288;DHT22;7745;48.708;9.026;2023-07-16T05:55:44;19.10;99.90
15288;DHT22;7745;48.708;9.026;2023-07-16T05:58:11;19.00;99.90
15288;DHT22;7745;48.708;9.026;2023-07-16T06:00:38;19.10;99.90
15288;DHT22;7745;48.708;9.026;2023-07-16T06:03:05;19.00;99.90
15288;DHT22;7745;48.708;9.026;2023-07-16T06:05:34;19.00;99.90
15288;DHT22;7745;48.708;9.026;2023-07-16T06:08:02;19.00;99.90
15288;DHT22;7745;48.708;9.026;2023-07-16T06:10:29;18.90;99.90
15288;DHT22;7745;48.708;9.026;2023-07-16T06:12:56;18.80;99.90
15288;DHT22;7745;48.708;9.026;2023-07-16T06:15:23;18.80;99.90
15288;DHT22;7745;48.708;9.026;2023-07-16T06:17:50;18.80;99.90
15288;DHT22;7745;48.708;9.026;2023-07-16T06:20:17;18.80;99.90
15288;DHT22;7745;48.708;9.026;2023-07-16T06:22:45;18.80;99.90
15288;DHT22;7745;48.708;9.026;2023-07-16T06:25:12;18.80;99.90
15288;DHT22;7745;48.708;9.026;2023-07-16T06:27:39;18.90;99.90
15288;DHT22;7745;48.708;9.026;2023-07-16T06:30:07;19.00;99.90
15288;DHT22;7745;48.708;9.026;2023-07-16T06:32:33;19.10;99.90
15288;DHT22;7745;48.708;9.026;2023-07-16T06:35:00;19.20;99.90
15288;DHT22;7745;48.708;9.026;2023-07-16T06:37:27;19.20;99.90
15288;DHT22;7745;48.708;9.026;2023-07-16T06:39:55;19.30;99.90
15288;DHT22;7745;48.708;9.026;2023-07-16T06:42:22;19.40;99.90
15288;DHT22;7745;48.708;9.026;2023-07-16T06:44:48;19.50;99.90
15288;DHT22;7745;48.708;9.026;2023-07-16T06:47:15;19.60;99.90
15288;DHT22;7745;48.708;9.026;2023-07-16T06:49:42;19.60;99.90
15288;DHT22;7745;48.708;9.026;2023-07-16T06:52:18;19.60;99.90
15288;DHT22;7745;48.708;9.026;2023-07-16T06:54:45;19.70;99.90
15288;DHT22;7745;48.708;9.026;2023-07-16T06:57:13;19.80;99.90
15288;DHT22;7745;48.708;9.026;2023-07-16T06:59:40;19.80;99.90
15288;DHT22;7745;48.708;9.026;2023-07-16T07:02:07;19.80;99.90
15288;DHT22;7745;48.708;9.026;2023-07-16T07:04:34;19.80;99.90
15288;DHT22;7745;48.708;9.026;2023-07-16T07:07:00;19.90;99.90
15288;DHT22;7745;48.708;9.026;2023-07-16T07:09:27;19.80;99.90
15288;DHT22;7745;48.708;9.026;2023-07-16T07:11:54;19.80;99.90
15288;DHT22;7745;48.708;9.026;2023-07-16T07:14:22;19.70;99.90
15288;DHT22;7745;48.708;9.026;2023-07-16T07:16:49;19.90;99.90
15288;DHT22;7745;48.708;9.026;2023-07-16T07:19:16;19.90;99.90
15288;DHT22;7745;48.708;9.026;2023-07-16T07:21:42;20.00;99.90
15288;DHT22;7745;48.708;9.026;2023-07-16T07:24:09;20.10;99.90
15288;DHT22;7745;48.708;9.026;2023-07-16T07:26:36;20.30;99.90
15288;DHT22;7745;48.708;9.026;2023-07-16T07:29:03;20.20;99.90
15288;DHT22;7745;48.708;9.026;2023-07-16T07:31:31;20.20;99.90
15288;DHT22;7745;48.708;9.026;2023-07-16T07:33:57;20.40;99.90
15288;DHT22;7745;48.708;9.026;2023-07-16T07:36:25;20.20;99.90
15288;DHT22;7745;48.708;9.026;2023-07-16T07:38:51;20.40;99.90
15288;DHT22;7745;48.708;9.026;2023-07-16T07:41:18;20.50;99.90
15288;DHT22;7745;48.708;9.026;2023-07-16T07:43:45;20.60;99.90
15288;DHT22;7745;48.708;9.026;2023-07-16T07:46:12;20.70;99.90
15288;DHT22;7745;48.708;9.026;2023-07-16T07:48:40;20.80;99.90
15288;DHT22;7745;48.708;9.026;2023-07-16T07:51:07;20.80;99.90
15288;DHT22;7745;48.708;9.026;2023-07-16T07:53:33;20.90;99.90
15288;DHT22;7745;48.708;9.026;2023-07-16T07:56:00;21.10;99.90
15288;DHT22;7745;48.708;9.026;2023-07-16T07:58:27;21.30;99.90
15288;DHT22;7745;48.708;9.026;2023-07-16T08:00:54;21.20;99.90
15288;DHT22;7745;48.708;9.026;2023-07-16T08:03:20;21.20;99.90
15288;DHT22;7745;48.708;9.026;2023-07-16T08:05:49;21.10;99.90
15288;DHT22;7745;48.708;9.026;2023-07-16T08:08:16;21.10;99.90
15288;DHT22;7745;48.708;9.026;2023-07-16T08:10:43;21.20;99.90
15288;DHT22;7745;48.708;9.026;2023-07-16T08:13:11;21.20;99.90
15288;DHT22;7745;48.708;9.026;2023-07-16T08:15:38;21.20;99.90
15288;DHT22;7745;48.708;9.026;2023-07-16T08:18:05;21.30;99.90
15288;DHT22;7745;48.708;9.026;2023-07-16T08:20:32;21.30;99.90
15288;DHT22;7745;48.708;9.026;2023-07-16T08:23:00;21.30;99.90
15288;DHT22;7745;48.708;9.026;2023-07-16T08:25:26;21.50;99.90
15288;DHT22;7745;48.708;9.026;2023-07-16T08:27:53;21.60;99.90
15288;DHT22;7745;48.708;9.026;2023-07-16T08:30:21;21.60;99.90
15288;DHT22;7745;48.708;9.026;2023-07-16T08:32:48;21.60;99.90
15288;DHT22;7745;48.708;9.026;2023-07-16T08:35:15;21.90;99.90
15288;DHT22;7745;48.708;9.026;2023-07-16T08:37:43;21.90;99.90
15288;DHT22;7745;48.708;9.026;2023-07-16T08:40:12;22.10;99.90
15288;DHT22;7745;48.708;9.026;2023-07-16T08:42:40;22.30;99.90
15288;DHT22;7745;48.708;9.026;2023-07-16T08:45:10;22.50;99.90
15288;DHT22;7745;48.708;9.026;2023-07-16T08:47:37;22.40;99.90
15288;DHT22;7745;48.708;9.026;2023-07-16T08:50:05;22.30;99.90
15288;DHT22;7745;48.708;9.026;2023-07-16T08:52:32;22.40;99.90
15288;DHT22;7745;48.708;9.026;2023-07-16T08:54:58;22.50;99.90
15288;DHT22;7745;48.708;9.026;2023-07-16T08:57:27;22.60;99.90
15288;DHT22;7745;48.708;9.026;2023-07-16T08:59:55;22.70;99.90
15288;DHT22;7745;48.708;9.026;2023-07-16T09:02:23;22.80;99.90
15288;DHT22;7745;48.708;9.026;2023-07-16T09:04:50;22.80;99.90
15288;DHT22;7745;48.708;9.026;2023-07-16T09:07:17;23.00;99.90
15288;DHT22;7745;48.708;9.026;2023-07-16T09:09:55;22.80;99.90
15288;DHT22;7745;48.708;9.026;2023-07-16T09:12:23;22.80;99.90
15288;DHT22;7745;48.708;9.026;2023-07-16T09:14:52;22.50;99.90
15288;DHT22;7745;48.708;9.026;2023-07-16T09:17:20;22.40;99.90
15288;DHT22;7745;48.708;9.026;2023-07-16T09:19:47;22.60;99.90
15288;DHT22;7745;48.708;9.026;2023-07-16T09:22:16;22.70;99.90
15288;DHT22;7745;48.708;9.026;2023-07-16T09:24:44;22.80;99.90
15288;DHT22;7745;48.708;9.026;2023-07-16T09:27:12;22.80;99.90
15288;DHT22;7745;48.708;9.026;2023-07-16T09:29:39;22.80;99.90
15288;DHT22;7745;48.708;9.026;2023-07-16T09:32:07;22.70;99.90
15288;DHT22;7745;48.708;9.026;2023-07-16T09:34:34;22.70;99.90
15288;DHT22;7745;48.708;9.026;2023-07-16T09:37:02;22.80;99.90
15288;DHT22;7745;48.708;9.026;2023-07-16T09:39:28;22.70;99.90
15288;DHT22;7745;48.708;9.026;2023-07-16T09:41:55;22.80;99.90
15288;DHT22;7745;48.708;9.026;2023-07-16T09:44:22;22.90;99.90
15288;DHT22;7745;48.708;9.026;2023-07-16T09:46:49;23.00;99.90
15288;DHT22;7745;48.708;9.026;2023-07-16T09:49:17;22.90;99.90
15288;DHT22;7745;48.708;9.026;2023-07-16T09:51:45;23.10;99.90
15288;DHT22;7745;48.708;9.026;2023-07-16T09:54:14;23.10;99.90
15288;DHT22;7745;48.708;9.026;2023-07-16T09:56:44;23.10;99.90
15288;DHT22;7745;48.708;9.026;2023-07-16T09:59:14;23.30;99.90
15288;DHT22;7745;48.708;9.026;2023-07-16T10:01:42;23.50;99.90
15288;DHT22;7745;48.708;9.026;2023-07-16T10:04:13;23.70;99.90
15288;DHT22;7745;48.708;9.026;2023-07-16T10:06:52;23.90;99.90
15288;DHT22;7745;48.708;9.026;2023-07-16T10:09:39;24.10;99.90
15288;DHT22;7745;48.708;9.026;2023-07-16T10:12:13;24.10;99.90
15288;DHT22;7745;48.708;9.026;2023-07-16T10:14:41;24.20;99.90
15288;DHT22;7745;48.708;9.026;2023-07-16T10:17:12;24.30;99.90
15288;DHT22;7745;48.708;9.026;2023-07-16T10:19:49;24.40;99.90
15288;DHT22;7745;48.708;9.026;2023-07-16T10:22:18;24.30;99.90
15288;DHT22;7745;48.708;9.026;2023-07-16T10:24:51;24.30;99.90
15288;DHT22;7745;48.708;9.026;2023-07-16T10:27:27;24.30;99.90
15288;DHT22;7745;48.708;9.026;2023-07-16T10:29:54;24.20;99.90
15288;DHT22;7745;48.708;9.026;2023-07-16T10:32:21;24.30;99.90
15288;DHT22;7745;48.708;9.026;2023-07-16T10:34:48;24.20;99.90
15288;DHT22;7745;48.708;9.026;2023-07-16T10:37:15;24.10;99.90
15288;DHT22;7745;48.708;9.026;2023-07-16T10:39:47;24.10;99.90
15288;DHT22;7745;48.708;9.026;2023-07-16T10:42:16;23.90;99.90
15288;DHT22;7745;48.708;9.026;2023-07-16T10:44:43;23.80;99.90
15288;DHT22;7745;48.708;9.026;2023-07-16T10:47:17;23.70;99.90
15288;DHT22;7745;48.708;9.026;2023-07-16T10:49:44;23.60;99.90
15288;DHT22;7745;48.708;9.026;2023-07-16T10:52:11;23.70;99.90
15288;DHT22;7745;48.708;9.026;2023-07-16T10:54:39;23.90;99.90
15288;DHT22;7745;48.708;9.026;2023-07-16T10:57:07;23.90;99.90
15288;DHT22;7745;48.708;9.026;2023-07-16T10:59:37;24.20;99.90
15288;DHT22;7745;48.708;9.026;2023-07-16T11:02:05;24.00;99.90
15288;DHT22;7745;48.708;9.026;2023-07-16T11:04:33;24.00;99.90
15288;DHT22;7745;48.708;9.026;2023-07-16T11:07:04;24.00;99.90
15288;DHT22;7745;48.708;9.026;2023-07-16T11:09:32;24.10;99.90
15288;DHT22;7745;48.708;9.026;2023-07-16T11:12:05;24.30;99.90
15288;DHT22;7745;48.708;9.026;2023-07-16T11:14:34;24.60;99.90
15288;DHT22;7745;48.708;9.026;2023-07-16T11:17:04;24.30;99.90
15288;DHT22;7745;48.708;9.026;2023-07-16T11:19:32;24.40;99.90
15288;DHT22;7745;48.708;9.026;2023-07-16T11:22:00;24.40;99.90
15288;DHT22;7745;48.708;9.026;2023-07-16T11:24:27;24.40;99.90
15288;DHT22;7745;48.708;9.026;2023-07-16T11:26:55;24.50;99.90
15288;DHT22;7745;48.708;9.026;2023-07-16T11:29:23;24.60;99.90
15288;DHT22;7745;48.708;9.026;2023-07-16T11:31:51;24.80;99.90
15288;DHT22;7745;48.708;9.026;2023-07-16T11:34:20;24.80;99.90
15288;DHT22;7745;48.708;9.026;2023-07-16T11:36:47;24.90;99.90
15288;DHT22;7745;48.708;9.026;2023-07-16T11:39:13;24.90;99.90
15288;DHT22;7745;48.708;9.026;2023-07-16T11:41:40;24.90;99.90
15288;DHT22;7745;48.708;9.026;2023-07-16T11:44:07;24.70;99.90
15288;DHT22;7745;48.708;9.026;2023-07-16T11:46:35;24.80;99.90
15288;DHT22;7745;48.708;9.026;2023-07-16T11:49:03;24.90;99.90
15288;DHT22;7745;48.708;9.026;2023-07-16T11:51:30;24.90;99.90
15288;DHT22;7745;48.708;9.026;2023-07-16T11:53:57;24.90;99.90
15288;DHT22;7745;48.708;9.026;2023-07-16T11:56:23;25.00;99.90
15288;DHT22;7745;48.708;9.026;2023-07-16T11:58:50;25.00;99.90
15288;DHT22;7745;48.708;9.026;2023-07-16T12:01:17;25.10;99.90
15288;DHT22;7745;48.708;9.026;2023-07-16T12:03:44;25.00;99.90
15288;DHT22;7745;48.708;9.026;2023-07-16T12:06:12;25.00;99.90
15288;DHT22;7745;48.708;9.026;2023-07-16T12:08:39;24.80;99.90
15288;DHT22;7745;48.708;9.026;2023-07-16T12:11:05;24.70;99.90
15288;DHT22;7745;48.708;9.026;2023-07-16T12:13:32;24.70;99.90
15288;DHT22;7745;48.708;9.026;2023-07-16T12:15:59;24.80;99.90
15288;DHT22;7745;48.708;9.026;2023-07-16T12:18:26;25.00;99.90
15288;DHT22;7745;48.708;9.026;2023-07-16T12:20:53;25.20;99.90
15288;DHT22;7745;48.708;9.026;2023-07-16T12:23:21;25.20;99.90
15288;DHT22;7745;48.708;9.026;2023-07-16T12:25:48;25.30;99.90
15288;DHT22;7745;48.708;9.026;2023-07-16T12:28:16;25.50;99.90
15288;DHT22;7745;48.708;9.026;2023-07-16T12:30:43;25.40;99.90
15288;DHT22;7745;48.708;9.026;2023-07-16T12:33:09;25.40;99.90
15288;DHT22;7745;48.708;9.026;2023-07-16T12:35:36;25.10;99.90
15288;DHT22;7745;48.708;9.026;2023-07-16T12:38:03;24.80;99.90
15288;DHT22;7745;48.708;9.026;2023-07-16T12:40:31;24.90;99.90
15288;DHT22;7745;48.708;9.026;2023-07-16T12:43:05;25.20;99.90
15288;DHT22;7745;48.708;9.026;2023-07-16T12:45:31;25.40;99.90
15288;DHT22;7745;48.708;9.026;2023-07-16T12:47:58;25.60;99.90
15288;DHT22;7745;48.708;9.026;2023-07-16T12:50:25;25.70;99.90
15288;DHT22;7745;48.708;9.026;2023-07-16T12:52:54;25.60;99.90
15288;DHT22;7745;48.708;9.026;2023-07-16T12:55:21;25.60;99.90
15288;DHT22;7745;48.708;9.026;2023-07-16T12:57:50;25.60;99.90
15288;DHT22;7745;48.708;9.026;2023-07-16T13:00:16;25.50;99.90
15288;DHT22;7745;48.708;9.026;2023-07-16T13:02:43;25.40;99.90
15288;DHT22;7745;48.708;9.026;2023-07-16T13:05:10;25.30;99.90
15288;DHT22;7745;48.708;9.026;2023-07-16T13:07:37;25.30;99.90
15288;DHT22;7745;48.708;9.026;2023-07-16T13:10:05;25.30;99.90
15288;DHT22;7745;48.708;9.026;2023-07-16T13:12:31;25.20;99.90
15288;DHT22;7745;48.708;9.026;2023-07-16T13:14:59;25.30;99.90
15288;DHT22;7745;48.708;9.026;2023-07-16T13:17:26;25.20;99.90
15288;DHT22;7745;48.708;9.026;2023-07-16T13:19:53;25.30;99.90
15288;DHT22;7745;48.708;9.026;2023-07-16T13:22:20;25.50;99.90
15288;DHT22;7745;48.708;9.026;2023-07-16T13:24:46;25.60;99.90
15288;DHT22;7745;48.708;9.026;2023-07-16T13:27:19;25.70;99.90
15288;DHT22;7745;48.708;9.026;2023-07-16T13:29:46;25.80;99.90
15288;DHT22;7745;48.708;9.026;2023-07-16T13:32:14;25.90;99.90
15288;DHT22;7745;48.708;9.026;2023-07-16T13:34:41;25.90;99.90
15288;DHT22;7745;48.708;9.026;2023-07-16T13:37:09;26.00;99.90
15288;DHT22;7745;48.708;9.026;2023-07-16T13:39:36;26.00;99.90
15288;DHT22;7745;48.708;9.026;2023-07-16T13:42:04;26.10;99.90
15288;DHT22;7745;48.708;9.026;2023-07-16T13:44:31;26.20;99.90
15288;DHT22;7745;48.708;9.026;2023-07-16T13:46:58;26.30;99.90
15288;DHT22;7745;48.708;9.026;2023-07-16T13:49:26;26.20;99.90
15288;DHT22;7745;48.708;9.026;2023-07-16T13:51:53;26.10;99.90
15288;DHT22;7745;48.708;9.026;2023-07-16T13:54:19;26.10;99.90
15288;DHT22;7745;48.708;9.026;2023-07-16T13:56:47;26.30;99.90
15288;DHT22;7745;48.708;9.026;2023-07-16T13:59:13;26.60;99.90
15288;DHT22;7745;48.708;9.026;2023-07-16T14:01:40;26.60;99.90
15288;DHT22;7745;48.708;9.026;2023-07-16T14:04:07;26.60;99.90
15288;DHT22;7745;48.708;9.026;2023-07-16T14:06:36;26.60;99.90
15288;DHT22;7745;48.708;9.026;2023-07-16T14:09:02;26.60;99.90
15288;DHT22;7745;48.708;9.026;2023-07-16T14:11:30;26.50;99.90
15288;DHT22;7745;48.708;9.026;2023-07-16T14:13:57;26.30;99.90
15288;DHT22;7745;48.708;9.026;2023-07-16T14:16:24;26.10;99.90
15288;DHT22;7745;48.708;9.026;2023-07-16T14:18:51;25.80;99.90
15288;DHT22;7745;48.708;9.026;2023-07-16T14:21:19;25.80;99.90
15288;DHT22;7745;48.708;9.026;2023-07-16T14:23:47;25.80;99.90
15288;DHT22;7745;48.708;9.026;2023-07-16T14:26:14;26.10;99.90
15288;DHT22;7745;48.708;9.026;2023-07-16T14:28:41;26.30;99.90
15288;DHT22;7745;48.708;9.026;2023-07-16T14:31:08;26.30;99.90
15288;DHT22;7745;48.708;9.026;2023-07-16T14:33:35;26.50;99.90
15288;DHT22;7745;48.708;9.026;2023-07-16T14:36:03;26.70;99.90
15288;DHT22;7745;48.708;9.026;2023-07-16T14:38:30;26.80;99.90
15288;DHT22;7745;48.708;9.026;2023-07-16T14:40:58;26.80;99.90
15288;DHT22;7745;48.708;9.026;2023-07-16T14:43:25;26.80;99.90
15288;DHT22;7745;48.708;9.026;2023-07-16T14:45:52;26.80;99.90
15288;DHT22;7745;48.708;9.026;2023-07-16T14:48:19;26.60;99.90
15288;DHT22;7745;48.708;9.026;2023-07-16T14:50:48;26.50;99.90
15288;DHT22;7745;48.708;9.026;2023-07-16T14:53:15;26.30;99.90
15288;DHT22;7745;48.708;9.026;2023-07-16T14:55:46;26.10;99.90
15288;DHT22;7745;48.708;9.026;2023-07-16T14:58:14;26.00;99.90
15288;DHT22;7745;48.708;9.026;2023-07-16T15:00:41;25.90;99.90
15288;DHT22;7745;48.708;9.026;2023-07-16T15:03:08;25.80;99.90
15288;DHT22;7745;48.708;9.026;2023-07-16T15:05:36;25.80;99.90
15288;DHT22;7745;48.708;9.026;2023-07-16T15:08:03;25.90;99.90
15288;DHT22;7745;48.708;9.026;2023-07-16T15:10:30;25.90;99.90
15288;DHT22;7745;48.708;9.026;2023-07-16T15:12:57;25.80;99.90
15288;DHT22;7745;48.708;9.026;2023-07-16T15:15:25;25.90;99.90
15288;DHT22;7745;48.708;9.026;2023-07-16T15:17:52;26.00;99.90
15288;DHT22;7745;48.708;9.026;2023-07-16T15:20:18;26.00;99.90
15288;DHT22;7745;48.708;9.026;2023-07-16T15:22:45;26.00;99.90
15288;DHT22;7745;48.708;9.026;2023-07-16T15:25:12;26.10;99.90
15288;DHT22;7745;48.708;9.026;2023-07-16T15:27:39;26.20;99.90
15288;DHT22;7745;48.708;9.026;2023-07-16T15:30:07;26.30;99.90
15288;DHT22;7745;48.708;9.026;2023-07-16T15:32:35;26.40;99.90
15288;DHT22;7745;48.708;9.026;2023-07-16T15:35:02;26.30;99.90
15288;DHT22;7745;48.708;9.026;2023-07-16T15:37:29;26.40;99.90
15288;DHT22;7745;48.708;9.026;2023-07-16T15:39:56;26.40;99.90
15288;DHT22;7745;48.708;9.026;2023-07-16T15:42:24;26.30;99.90
15288;DHT22;7745;48.708;9.026;2023-07-16T15:44:51;26.20;99.90
15288;DHT22;7745;48.708;9.026;2023-07-16T15:47:18;26.10;99.90